sensor_id;sensor_type;location;lat;lon;timestamp;P1;P2;P0
73204;PMS5003;61413;-27.702;153.216;2024-01-07T00:00:16;6;4;
73204;PMS5003;61413;-27.702;153.216;2024-01-07T00:02:43;6;5;
73204;PMS5003;61413;-27.702;153.216;2024-01-07T00:05:10;6;5;
73204;PMS5003;61413;-27.702;153.216;2024-01-07T00:07:37;7;4;
73204;PMS5003;61413;-27.702;153.216;2024-01-07T00:12:55;4;4;
73204;PMS5003;61413;-27.702;153.216;2024-01-07T00:15:22;5;3;
73204;PMS5003;61413;-27.702;153.216;2024-01-07T00:17:49;4;4;
73204;PMS5003;61413;-27.702;153.216;2024-01-07T00:20:16;2;2;
73204;PMS5003;61413;-27.702;153.216;2024-01-07T00:22:43;4;4;
73204;PMS5003;61413;-27.702;153.216;2024-01-07T00:27:20;5;5;
73204;PMS5003;61413;-27.702;153.216;2024-01-07T00:29:47;5;5;
73204;PMS5003;61413;-27.702;153.216;2024-01-07T00:32:15;6;4;
73204;PMS5003;61413;-27.702;153.216;2024-01-07T00:34:42;3;3;
73204;PMS5003;61413;-27.702;153.216;2024-01-07T00:37:10;4;4;
73204;PMS5003;61413;-27.702;153.216;2024-01-07T00:39:37;4;4;
73204;PMS5003;61413;-27.702;153.216;2024-01-07T00:42:04;6;4;
73204;PMS5003;61413;-27.702;153.216;2024-01-07T00:44:31;6;5;
73204;PMS5003;61413;-27.702;153.216;2024-01-07T00:46:58;4;4;
73204;PMS5003;61413;-27.702;153.216;2024-01-07T00:49:24;3;3;
73204;PMS5003;61413;-27.702;153.216;2024-01-07T00:51:51;7;5;
73204;PMS5003;61413;-27.702;153.216;2024-01-07T00:54:18;5;5;
73204;PMS5003;61413;-27.702;153.216;2024-01-07T00:56:45;4;4;
73204;PMS5003;61413;-27.702;153.216;2024-01-07T00:59:12;5;5;
73204;PMS5003;61413;-27.702;153.216;2024-01-07T01:01:38;6;5;
73204;PMS5003;61413;-27.702;153.216;2024-01-07T01:04:05;3;3;
73204;PMS5003;61413;-27.702;153.216;2024-01-07T01:06:32;4;4;
73204;PMS5003;61413;-27.702;153.216;2024-01-07T01:10:55;5;4;
73204;PMS5003;61413;-27.702;153.216;2024-01-07T01:13:22;6;3;
73204;PMS5003;61413;-27.702;153.216;2024-01-07T01:18:17;5;5;
73204;PMS5003;61413;-27.702;153.216;2024-01-07T01:20:44;3;3;
73204;PMS5003;61413;-27.702;153.216;2024-01-07T01:23:11;3;3;
73204;PMS5003;61413;-27.702;153.216;2024-01-07T01:25:38;3;3;
73204;PMS5003;61413;-27.702;153.216;2024-01-07T01:28:05;4;4;
73204;PMS5003;61413;-27.702;153.216;2024-01-07T01:30:32;5;4;
73204;PMS5003;61413;-27.702;153.216;2024-01-07T01:32:59;4;4;
73204;PMS5003;61413;-27.702;153.216;2024-01-07T01:35:26;5;3;
73204;PMS5003;61413;-27.702;153.216;2024-01-07T01:37:53;6;6;
73204;PMS5003;61413;-27.702;153.216;2024-01-07T01:40:20;5;4;
73204;PMS5003;61413;-27.702;153.216;2024-01-07T01:42:46;4;4;
73204;PMS5003;61413;-27.702;153.216;2024-01-07T01:45:13;6;5;
73204;PMS5003;61413;-27.702;153.216;2024-01-07T01:47:40;4;4;
73204;PMS5003;61413;-27.702;153.216;2024-01-07T01:50:08;7;4;
73204;PMS5003;61413;-27.702;153.216;2024-01-07T01:52:34;6;6;
73204;PMS5003;61413;-27.702;153.216;2024-01-07T01:55:02;6;6;
73204;PMS5003;61413;-27.702;153.216;2024-01-07T01:58:57;8;7;
73204;PMS5003;61413;-27.702;153.216;2024-01-07T02:01:25;12;7;
73204;PMS5003;61413;-27.702;153.216;2024-01-07T02:03:49;9;9;
73204;PMS5003;61413;-27.702;153.216;2024-01-07T02:06:16;10;8;
73204;PMS5003;61413;-27.702;153.216;2024-01-07T02:08:43;6;5;
73204;PMS5003;61413;-27.702;153.216;2024-01-07T02:11:18;7;7;
73204;PMS5003;61413;-27.702;153.216;2024-01-07T02:13:38;6;6;
73204;PMS5003;61413;-27.702;153.216;2024-01-07T02:16:05;10;7;
73204;PMS5003;61413;-27.702;153.216;2024-01-07T02:18:32;12;8;
73204;PMS5003;61413;-27.702;153.216;2024-01-07T02:22:38;10;9;
73204;PMS5003;61413;-27.702;153.216;2024-01-07T02:25:05;6;6;
73204;PMS5003;61413;-27.702;153.216;2024-01-07T02:27:32;9;6;
73204;PMS5003;61413;-27.702;153.216;2024-01-07T02:29:59;9;7;
73204;PMS5003;61413;-27.702;153.216;2024-01-07T02:32:26;9;8;
73204;PMS5003;61413;-27.702;153.216;2024-01-07T02:34:53;7;6;
73204;PMS5003;61413;-27.702;153.216;2024-01-07T02:37:20;10;7;
73204;PMS5003;61413;-27.702;153.216;2024-01-07T02:39:48;5;5;
73204;PMS5003;61413;-27.702;153.216;2024-01-07T02:42:15;9;6;
73204;PMS5003;61413;-27.702;153.216;2024-01-07T02:44:42;7;7;
73204;PMS5003;61413;-27.702;153.216;2024-01-07T02:50:07;7;6;
73204;PMS5003;61413;-27.702;153.216;2024-01-07T02:53:32;6;6;
73204;PMS5003;61413;-27.702;153.216;2024-01-07T02:55:59;6;5;
73204;PMS5003;61413;-27.702;153.216;2024-01-07T02:58:26;6;5;
73204;PMS5003;61413;-27.702;153.216;2024-01-07T03:00:54;7;7;
73204;PMS5003;61413;-27.702;153.216;2024-01-07T03:03:21;5;5;
73204;PMS5003;61413;-27.702;153.216;2024-01-07T03:05:48;11;7;
73204;PMS5003;61413;-27.702;153.216;2024-01-07T03:08:15;7;5;
73204;PMS5003;61413;-27.702;153.216;2024-01-07T03:10:43;4;4;
73204;PMS5003;61413;-27.702;153.216;2024-01-07T03:16:26;8;6;
73204;PMS5003;61413;-27.702;153.216;2024-01-07T03:18:54;4;4;
73204;PMS5003;61413;-27.702;153.216;2024-01-07T03:21:22;7;5;
73204;PMS5003;61413;-27.702;153.216;2024-01-07T03:23:50;6;4;
73204;PMS5003;61413;-27.702;153.216;2024-01-07T03:26:17;6;5;
73204;PMS5003;61413;-27.702;153.216;2024-01-07T03:28:45;5;4;
73204;PMS5003;61413;-27.702;153.216;2024-01-07T03:31:14;5;5;
73204;PMS5003;61413;-27.702;153.216;2024-01-07T03:33:39;6;5;
73204;PMS5003;61413;-27.702;153.216;2024-01-07T03:36:09;5;5;
73204;PMS5003;61413;-27.702;153.216;2024-01-07T03:38:34;7;5;
73204;PMS5003;61413;-27.702;153.216;2024-01-07T03:41:02;5;5;
73204;PMS5003;61413;-27.702;153.216;2024-01-07T03:43:28;6;6;
73204;PMS5003;61413;-27.702;153.216;2024-01-07T03:45:55;5;3;
73204;PMS5003;61413;-27.702;153.216;2024-01-07T03:48:22;6;4;
73204;PMS5003;61413;-27.702;153.216;2024-01-07T03:50:51;5;5;
73204;PMS5003;61413;-27.702;153.216;2024-01-07T03:53:17;5;5;
73204;PMS5003;61413;-27.702;153.216;2024-01-07T03:55:45;9;7;
73204;PMS5003;61413;-27.702;153.216;2024-01-07T03:58:11;5;5;
73204;PMS5003;61413;-27.702;153.216;2024-01-07T04:00:38;8;6;
73204;PMS5003;61413;-27.702;153.216;2024-01-07T04:03:05;7;7;
73204;PMS5003;61413;-27.702;153.216;2024-01-07T04:05:32;5;5;
73204;PMS5003;61413;-27.702;153.216;2024-01-07T04:07:59;8;5;
73204;PMS5003;61413;-27.702;153.216;2024-01-07T04:10:26;4;4;
73204;PMS5003;61413;-27.702;153.216;2024-01-07T04:12:53;7;5;
73204;PMS5003;61413;-27.702;153.216;2024-01-07T04:15:20;5;3;
73204;PMS5003;61413;-27.702;153.216;2024-01-07T04:17:47;3;3;
73204;PMS5003;61413;-27.702;153.216;2024-01-07T04:20:14;4;2;
73204;PMS5003;61413;-27.702;153.216;2024-01-07T04:22:42;3;3;
73204;PMS5003;61413;-27.702;153.216;2024-01-07T04:25:09;2;2;
73204;PMS5003;61413;-27.702;153.216;2024-01-07T04:27:36;3;3;
73204;PMS5003;61413;-27.702;153.216;2024-01-07T04:30:03;3;3;
73204;PMS5003;61413;-27.702;153.216;2024-01-07T04:32:31;5;4;
73204;PMS5003;61413;-27.702;153.216;2024-01-07T04:34:58;5;5;
73204;PMS5003;61413;-27.702;153.216;2024-01-07T04:41:49;3;2;
73204;PMS5003;61413;-27.702;153.216;2024-01-07T04:44:17;5;3;
73204;PMS5003;61413;-27.702;153.216;2024-01-07T04:46:44;3;3;
73204;PMS5003;61413;-27.702;153.216;2024-01-07T04:49:12;3;3;
73204;PMS5003;61413;-27.702;153.216;2024-01-07T04:51:40;3;1;
73204;PMS5003;61413;-27.702;153.216;2024-01-07T04:54:07;2;2;
73204;PMS5003;61413;-27.702;153.216;2024-01-07T04:56:34;4;4;
73204;PMS5003;61413;-27.702;153.216;2024-01-07T04:59:02;4;3;
73204;PMS5003;61413;-27.702;153.216;2024-01-07T05:01:29;2;2;
73204;PMS5003;61413;-27.702;153.216;2024-01-07T05:03:57;3;3;
73204;PMS5003;61413;-27.702;153.216;2024-01-07T05:06:24;3;3;
73204;PMS5003;61413;-27.702;153.216;2024-01-07T05:08:51;1;1;
73204;PMS5003;61413;-27.702;153.216;2024-01-07T05:11:17;2;2;
73204;PMS5003;61413;-27.702;153.216;2024-01-07T05:15:26;2;2;
73204;PMS5003;61413;-27.702;153.216;2024-01-07T05:17:53;7;3;
73204;PMS5003;61413;-27.702;153.216;2024-01-07T05:20:20;2;2;
73204;PMS5003;61413;-27.702;153.216;2024-01-07T05:22:48;2;2;
73204;PMS5003;61413;-27.702;153.216;2024-01-07T05:25:15;2;1;
73204;PMS5003;61413;-27.702;153.216;2024-01-07T05:27:42;1;1;
73204;PMS5003;61413;-27.702;153.216;2024-01-07T05:30:09;4;2;
73204;PMS5003;61413;-27.702;153.216;2024-01-07T05:32:37;3;3;
73204;PMS5003;61413;-27.702;153.216;2024-01-07T05:35:05;1;1;
73204;PMS5003;61413;-27.702;153.216;2024-01-07T05:37:41;2;2;
73204;PMS5003;61413;-27.702;153.216;2024-01-07T05:40:01;3;2;
73204;PMS5003;61413;-27.702;153.216;2024-01-07T05:42:28;2;1;
73204;PMS5003;61413;-27.702;153.216;2024-01-07T05:44:55;3;1;
73204;PMS5003;61413;-27.702;153.216;2024-01-07T05:47:22;2;2;
73204;PMS5003;61413;-27.702;153.216;2024-01-07T05:49:49;2;2;
73204;PMS5003;61413;-27.702;153.216;2024-01-07T05:52:16;2;2;
73204;PMS5003;61413;-27.702;153.216;2024-01-07T05:54:44;2;2;
73204;PMS5003;61413;-27.702;153.216;2024-01-07T05:57:11;2;2;
73204;PMS5003;61413;-27.702;153.216;2024-01-07T05:59:39;3;2;
73204;PMS5003;61413;-27.702;153.216;2024-01-07T06:02:06;1;1;
73204;PMS5003;61413;-27.702;153.216;2024-01-07T06:04:33;4;2;
73204;PMS5003;61413;-27.702;153.216;2024-01-07T06:09:19;1;1;
73204;PMS5003;61413;-27.702;153.216;2024-01-07T06:11:46;2;2;
73204;PMS5003;61413;-27.702;153.216;2024-01-07T06:14:13;2;2;
73204;PMS5003;61413;-27.702;153.216;2024-01-07T06:16:40;2;2;
73204;PMS5003;61413;-27.702;153.216;2024-01-07T06:19:07;2;1;
73204;PMS5003;61413;-27.702;153.216;2024-01-07T06:22:47;0;0;
73204;PMS5003;61413;-27.702;153.216;2024-01-07T06:25:14;2;2;
73204;PMS5003;61413;-27.702;153.216;2024-01-07T06:27:41;1;1;
73204;PMS5003;61413;-27.702;153.216;2024-01-07T06:30:08;3;2;
73204;PMS5003;61413;-27.702;153.216;2024-01-07T06:32:36;1;1;
73204;PMS5003;61413;-27.702;153.216;2024-01-07T06:35:03;1;1;
73204;PMS5003;61413;-27.702;153.216;2024-01-07T06:37:30;2;2;
73204;PMS5003;61413;-27.702;153.216;2024-01-07T06:39:57;1;1;
73204;PMS5003;61413;-27.702;153.216;2024-01-07T06:42:24;2;1;
73204;PMS5003;61413;-27.702;153.216;2024-01-07T06:44:50;1;1;
73204;PMS5003;61413;-27.702;153.216;2024-01-07T06:47:17;2;1;
73204;PMS5003;61413;-27.702;153.216;2024-01-07T06:49:44;1;1;
73204;PMS5003;61413;-27.702;153.216;2024-01-07T06:52:11;2;2;
73204;PMS5003;61413;-27.702;153.216;2024-01-07T06:54:40;1;1;
73204;PMS5003;61413;-27.702;153.216;2024-01-07T06:57:08;1;1;
73204;PMS5003;61413;-27.702;153.216;2024-01-07T07:00:33;0;0;
73204;PMS5003;61413;-27.702;153.216;2024-01-07T07:03:01;1;1;
73204;PMS5003;61413;-27.702;153.216;2024-01-07T07:05:27;2;1;
73204;PMS5003;61413;-27.702;153.216;2024-01-07T07:07:54;1;1;
73204;PMS5003;61413;-27.702;153.216;2024-01-07T07:10:21;2;2;
73204;PMS5003;61413;-27.702;153.216;2024-01-07T07:12:48;2;2;
73204;PMS5003;61413;-27.702;153.216;2024-01-07T07:15:15;2;2;
73204;PMS5003;61413;-27.702;153.216;2024-01-07T07:17:42;2;2;
73204;PMS5003;61413;-27.702;153.216;2024-01-07T07:20:09;2;1;
73204;PMS5003;61413;-27.702;153.216;2024-01-07T07:22:36;1;1;
73204;PMS5003;61413;-27.702;153.216;2024-01-07T07:25:03;1;1;
73204;PMS5003;61413;-27.702;153.216;2024-01-07T07:27:32;1;1;
73204;PMS5003;61413;-27.702;153.216;2024-01-07T07:29:58;1;1;
73204;PMS5003;61413;-27.702;153.216;2024-01-07T07:32:25;3;2;
73204;PMS5003;61413;-27.702;153.216;2024-01-07T07:34:54;1;1;
73204;PMS5003;61413;-27.702;153.216;2024-01-07T07:37:20;0;0;
73204;PMS5003;61413;-27.702;153.216;2024-01-07T07:39:47;6;2;
73204;PMS5003;61413;-27.702;153.216;2024-01-07T07:42:14;1;1;
73204;PMS5003;61413;-27.702;153.216;2024-01-07T07:44:42;2;2;
73204;PMS5003;61413;-27.702;153.216;2024-01-07T07:47:09;2;2;
73204;PMS5003;61413;-27.702;153.216;2024-01-07T07:49:35;2;2;
73204;PMS5003;61413;-27.702;153.216;2024-01-07T07:54:13;4;3;
73204;PMS5003;61413;-27.702;153.216;2024-01-07T07:56:39;3;3;
73204;PMS5003;61413;-27.702;153.216;2024-01-07T07:59:06;2;1;
73204;PMS5003;61413;-27.702;153.216;2024-01-07T08:01:34;1;1;
73204;PMS5003;61413;-27.702;153.216;2024-01-07T08:04:01;2;2;
73204;PMS5003;61413;-27.702;153.216;2024-01-07T08:06:29;3;1;
73204;PMS5003;61413;-27.702;153.216;2024-01-07T08:08:57;3;2;
73204;PMS5003;61413;-27.702;153.216;2024-01-07T08:11:24;2;2;
73204;PMS5003;61413;-27.702;153.216;2024-01-07T08:14:52;2;2;
73204;PMS5003;61413;-27.702;153.216;2024-01-07T08:17:21;3;1;
73204;PMS5003;61413;-27.702;153.216;2024-01-07T08:19:56;1;1;
73204;PMS5003;61413;-27.702;153.216;2024-01-07T08:22:15;0;0;
73204;PMS5003;61413;-27.702;153.216;2024-01-07T08:24:51;1;1;
73204;PMS5003;61413;-27.702;153.216;2024-01-07T08:27:17;1;1;
73204;PMS5003;61413;-27.702;153.216;2024-01-07T08:29:36;1;1;
73204;PMS5003;61413;-27.702;153.216;2024-01-07T08:32:03;4;3;
73204;PMS5003;61413;-27.702;153.216;2024-01-07T08:34:30;1;1;
73204;PMS5003;61413;-27.702;153.216;2024-01-07T08:36:58;2;2;
73204;PMS5003;61413;-27.702;153.216;2024-01-07T08:39:24;7;2;
73204;PMS5003;61413;-27.702;153.216;2024-01-07T08:41:51;0;0;
73204;PMS5003;61413;-27.702;153.216;2024-01-07T08:44:18;1;1;
73204;PMS5003;61413;-27.702;153.216;2024-01-07T08:46:45;3;1;
73204;PMS5003;61413;-27.702;153.216;2024-01-07T08:49:10;2;1;
73204;PMS5003;61413;-27.702;153.216;2024-01-07T08:51:37;0;0;
73204;PMS5003;61413;-27.702;153.216;2024-01-07T08:56:50;2;2;
73204;PMS5003;61413;-27.702;153.216;2024-01-07T08:59:17;3;1;
73204;PMS5003;61413;-27.702;153.216;2024-01-07T09:01:43;2;0;
73204;PMS5003;61413;-27.702;153.216;2024-01-07T09:04:10;1;1;
73204;PMS5003;61413;-27.702;153.216;2024-01-07T09:06:37;1;1;
73204;PMS5003;61413;-27.702;153.216;2024-01-07T09:09:04;2;1;
73204;PMS5003;61413;-27.702;153.216;2024-01-07T09:11:31;0;0;
73204;PMS5003;61413;-27.702;153.216;2024-01-07T09:13:58;0;0;
73204;PMS5003;61413;-27.702;153.216;2024-01-07T09:16:26;3;1;
73204;PMS5003;61413;-27.702;153.216;2024-01-07T09:18:53;2;2;
73204;PMS5003;61413;-27.702;153.216;2024-01-07T09:21:21;1;0;
73204;PMS5003;61413;-27.702;153.216;2024-01-07T09:23:45;0;0;
73204;PMS5003;61413;-27.702;153.216;2024-01-07T09:27:24;3;1;
73204;PMS5003;61413;-27.702;153.216;2024-01-07T09:29:51;0;0;
73204;PMS5003;61413;-27.702;153.216;2024-01-07T09:32:18;2;2;
73204;PMS5003;61413;-27.702;153.216;2024-01-07T09:34:45;2;1;
73204;PMS5003;61413;-27.702;153.216;2024-01-07T09:37:12;2;0;
73204;PMS5003;61413;-27.702;153.216;2024-01-07T09:39:39;2;1;
73204;PMS5003;61413;-27.702;153.216;2024-01-07T09:42:06;3;2;
73204;PMS5003;61413;-27.702;153.216;2024-01-07T09:44:33;2;2;
73204;PMS5003;61413;-27.702;153.216;2024-01-07T09:47:01;1;1;
73204;PMS5003;61413;-27.702;153.216;2024-01-07T09:49:29;2;2;
73204;PMS5003;61413;-27.702;153.216;2024-01-07T09:57:54;1;1;
73204;PMS5003;61413;-27.702;153.216;2024-01-07T10:00:22;2;2;
73204;PMS5003;61413;-27.702;153.216;2024-01-07T10:02:46;3;3;
73204;PMS5003;61413;-27.702;153.216;2024-01-07T10:05:13;2;1;
73204;PMS5003;61413;-27.702;153.216;2024-01-07T10:07:40;3;1;
73204;PMS5003;61413;-27.702;153.216;2024-01-07T10:10:14;1;1;
73204;PMS5003;61413;-27.702;153.216;2024-01-07T10:12:33;1;1;
73204;PMS5003;61413;-27.702;153.216;2024-01-07T10:15:01;4;3;
73204;PMS5003;61413;-27.702;153.216;2024-01-07T10:17:33;1;1;
73204;PMS5003;61413;-27.702;153.216;2024-01-07T10:22:34;1;1;
73204;PMS5003;61413;-27.702;153.216;2024-01-07T10:25:01;3;3;
73204;PMS5003;61413;-27.702;153.216;2024-01-07T10:27:28;1;1;
73204;PMS5003;61413;-27.702;153.216;2024-01-07T10:29:53;1;1;
73204;PMS5003;61413;-27.702;153.216;2024-01-07T10:32:22;2;2;
73204;PMS5003;61413;-27.702;153.216;2024-01-07T10:34:48;1;1;
73204;PMS5003;61413;-27.702;153.216;2024-01-07T10:37:17;2;2;
73204;PMS5003;61413;-27.702;153.216;2024-01-07T10:39:43;5;3;
73204;PMS5003;61413;-27.702;153.216;2024-01-07T10:42:10;2;1;
73204;PMS5003;61413;-27.702;153.216;2024-01-07T10:46:22;4;2;
73204;PMS5003;61413;-27.702;153.216;2024-01-07T10:48:51;4;2;
73204;PMS5003;61413;-27.702;153.216;2024-01-07T10:51:15;2;2;
73204;PMS5003;61413;-27.702;153.216;2024-01-07T10:53:41;9;5;
73204;PMS5003;61413;-27.702;153.216;2024-01-07T10:56:08;5;2;
73204;PMS5003;61413;-27.702;153.216;2024-01-07T10:58:33;4;3;
73204;PMS5003;61413;-27.702;153.216;2024-01-07T11:01:00;4;2;
73204;PMS5003;61413;-27.702;153.216;2024-01-07T11:03:31;3;3;
73204;PMS5003;61413;-27.702;153.216;2024-01-07T11:08:15;1;1;
73204;PMS5003;61413;-27.702;153.216;2024-01-07T11:10:43;3;3;
73204;PMS5003;61413;-27.702;153.216;2024-01-07T11:13:07;2;2;
73204;PMS5003;61413;-27.702;153.216;2024-01-07T11:16:05;6;3;
73204;PMS5003;61413;-27.702;153.216;2024-01-07T11:18:02;7;3;
73204;PMS5003;61413;-27.702;153.216;2024-01-07T11:20:29;3;3;
73204;PMS5003;61413;-27.702;153.216;2024-01-07T11:23:17;3;1;
73204;PMS5003;61413;-27.702;153.216;2024-01-07T11:25:32;9;3;
73204;PMS5003;61413;-27.702;153.216;2024-01-07T11:27:52;6;3;
73204;PMS5003;61413;-27.702;153.216;2024-01-07T11:30:20;11;7;
73204;PMS5003;61413;-27.702;153.216;2024-01-07T11:32:47;5;3;
73204;PMS5003;61413;-27.702;153.216;2024-01-07T11:35:12;4;4;
73204;PMS5003;61413;-27.702;153.216;2024-01-07T11:37:39;5;5;
73204;PMS5003;61413;-27.702;153.216;2024-01-07T11:40:06;3;3;
73204;PMS5003;61413;-27.702;153.216;2024-01-07T11:42:33;2;2;
73204;PMS5003;61413;-27.702;153.216;2024-01-07T11:45:00;4;3;
73204;PMS5003;61413;-27.702;153.216;2024-01-07T11:47:29;5;2;
73204;PMS5003;61413;-27.702;153.216;2024-01-07T11:49:56;4;2;
73204;PMS5003;61413;-27.702;153.216;2024-01-07T11:52:23;8;3;
73204;PMS5003;61413;-27.702;153.216;2024-01-07T11:54:50;4;4;
73204;PMS5003;61413;-27.702;153.216;2024-01-07T11:57:16;5;2;
73204;PMS5003;61413;-27.702;153.216;2024-01-07T11:59:43;3;3;
73204;PMS5003;61413;-27.702;153.216;2024-01-07T12:02:10;2;2;
73204;PMS5003;61413;-27.702;153.216;2024-01-07T12:04:37;4;3;
73204;PMS5003;61413;-27.702;153.216;2024-01-07T12:07:04;5;4;
73204;PMS5003;61413;-27.702;153.216;2024-01-07T12:09:31;3;3;
73204;PMS5003;61413;-27.702;153.216;2024-01-07T12:11:57;10;3;
73204;PMS5003;61413;-27.702;153.216;2024-01-07T12:14:25;6;5;
73204;PMS5003;61413;-27.702;153.216;2024-01-07T12:16:53;8;1;
73204;PMS5003;61413;-27.702;153.216;2024-01-07T12:19:20;7;3;
73204;PMS5003;61413;-27.702;153.216;2024-01-07T12:21:48;4;2;
73204;PMS5003;61413;-27.702;153.216;2024-01-07T12:24:24;5;3;
73204;PMS5003;61413;-27.702;153.216;2024-01-07T12:26:43;5;3;
73204;PMS5003;61413;-27.702;153.216;2024-01-07T12:29:12;4;2;
73204;PMS5003;61413;-27.702;153.216;2024-01-07T12:31:35;2;2;
73204;PMS5003;61413;-27.702;153.216;2024-01-07T12:34:02;4;2;
73204;PMS5003;61413;-27.702;153.216;2024-01-07T12:36:29;6;3;
73204;PMS5003;61413;-27.702;153.216;2024-01-07T12:38:57;1;1;
73204;PMS5003;61413;-27.702;153.216;2024-01-07T12:41:23;7;4;
73204;PMS5003;61413;-27.702;153.216;2024-01-07T12:43:51;3;2;
73204;PMS5003;61413;-27.702;153.216;2024-01-07T12:46:18;2;2;
73204;PMS5003;61413;-27.702;153.216;2024-01-07T12:48:45;6;2;
73204;PMS5003;61413;-27.702;153.216;2024-01-07T12:53:59;3;3;
73204;PMS5003;61413;-27.702;153.216;2024-01-07T12:56:26;1;1;
73204;PMS5003;61413;-27.702;153.216;2024-01-07T12:58:51;4;2;
73204;PMS5003;61413;-27.702;153.216;2024-01-07T13:01:18;7;3;
73204;PMS5003;61413;-27.702;153.216;2024-01-07T13:03:45;6;4;
73204;PMS5003;61413;-27.702;153.216;2024-01-07T13:06:12;3;2;
73204;PMS5003;61413;-27.702;153.216;2024-01-07T13:08:39;6;3;
73204;PMS5003;61413;-27.702;153.216;2024-01-07T13:11:06;7;5;
73204;PMS5003;61413;-27.702;153.216;2024-01-07T13:13:33;2;2;
73204;PMS5003;61413;-27.702;153.216;2024-01-07T13:16:00;8;3;
73204;PMS5003;61413;-27.702;153.216;2024-01-07T13:18:28;4;2;
73204;PMS5003;61413;-27.702;153.216;2024-01-07T13:20:55;2;2;
73204;PMS5003;61413;-27.702;153.216;2024-01-07T13:23:24;5;3;
73204;PMS5003;61413;-27.702;153.216;2024-01-07T13:25:51;3;2;
73204;PMS5003;61413;-27.702;153.216;2024-01-07T13:28:18;3;2;
73204;PMS5003;61413;-27.702;153.216;2024-01-07T13:30:45;6;4;
73204;PMS5003;61413;-27.702;153.216;2024-01-07T13:33:12;2;1;
73204;PMS5003;61413;-27.702;153.216;2024-01-07T13:35:39;7;5;
73204;PMS5003;61413;-27.702;153.216;2024-01-07T13:38:06;4;3;
73204;PMS5003;61413;-27.702;153.216;2024-01-07T13:40:33;5;4;
73204;PMS5003;61413;-27.702;153.216;2024-01-07T13:43:00;4;2;
73204;PMS5003;61413;-27.702;153.216;2024-01-07T13:45:27;7;5;
73204;PMS5003;61413;-27.702;153.216;2024-01-07T13:47:54;8;3;
73204;PMS5003;61413;-27.702;153.216;2024-01-07T13:50:21;6;3;
73204;PMS5003;61413;-27.702;153.216;2024-01-07T13:52:48;3;3;
73204;PMS5003;61413;-27.702;153.216;2024-01-07T13:55:15;4;3;
73204;PMS5003;61413;-27.702;153.216;2024-01-07T13:57:42;6;4;
73204;PMS5003;61413;-27.702;153.216;2024-01-07T14:00:11;10;4;
73204;PMS5003;61413;-27.702;153.216;2024-01-07T14:02:37;7;1;
73204;PMS5003;61413;-27.702;153.216;2024-01-07T14:05:05;6;2;
73204;PMS5003;61413;-27.702;153.216;2024-01-07T14:07:32;3;3;
73204;PMS5003;61413;-27.702;153.216;2024-01-07T14:09:59;3;2;
73204;PMS5003;61413;-27.702;153.216;2024-01-07T14:12:26;6;3;
73204;PMS5003;61413;-27.702;153.216;2024-01-07T14:14:54;4;3;
73204;PMS5003;61413;-27.702;153.216;2024-01-07T14:17:21;1;1;
73204;PMS5003;61413;-27.702;153.216;2024-01-07T14:19:49;8;4;
73204;PMS5003;61413;-27.702;153.216;2024-01-07T14:22:16;4;2;
73204;PMS5003;61413;-27.702;153.216;2024-01-07T14:24:43;3;2;
73204;PMS5003;61413;-27.702;153.216;2024-01-07T14:27:09;4;3;
73204;PMS5003;61413;-27.702;153.216;2024-01-07T14:29:36;7;2;
73204;PMS5003;61413;-27.702;153.216;2024-01-07T14:32:03;4;2;
73204;PMS5003;61413;-27.702;153.216;2024-01-07T14:34:31;7;3;
73204;PMS5003;61413;-27.702;153.216;2024-01-07T14:36:58;4;3;
73204;PMS5003;61413;-27.702;153.216;2024-01-07T14:39:25;4;3;
73204;PMS5003;61413;-27.702;153.216;2024-01-07T14:41:52;5;3;
73204;PMS5003;61413;-27.702;153.216;2024-01-07T14:44:19;5;2;
73204;PMS5003;61413;-27.702;153.216;2024-01-07T14:46:46;6;2;
73204;PMS5003;61413;-27.702;153.216;2024-01-07T14:49:12;6;4;
73204;PMS5003;61413;-27.702;153.216;2024-01-07T14:51:39;4;2;
73204;PMS5003;61413;-27.702;153.216;2024-01-07T14:56:17;0;0;
73204;PMS5003;61413;-27.702;153.216;2024-01-07T14:58:44;3;1;
73204;PMS5003;61413;-27.702;153.216;2024-01-07T15:01:11;5;3;
73204;PMS5003;61413;-27.702;153.216;2024-01-07T15:03:38;6;2;
73204;PMS5003;61413;-27.702;153.216;2024-01-07T15:06:06;3;1;
73204;PMS5003;61413;-27.702;153.216;2024-01-07T15:08:33;3;1;
73204;PMS5003;61413;-27.702;153.216;2024-01-07T15:11:00;4;2;
73204;PMS5003;61413;-27.702;153.216;2024-01-07T15:13:27;2;2;
73204;PMS5003;61413;-27.702;153.216;2024-01-07T15:15:54;5;2;
73204;PMS5003;61413;-27.702;153.216;2024-01-07T15:18:20;4;1;
73204;PMS5003;61413;-27.702;153.216;2024-01-07T15:20:47;3;3;
73204;PMS5003;61413;-27.702;153.216;2024-01-07T15:23:14;6;3;
73204;PMS5003;61413;-27.702;153.216;2024-01-07T15:25:42;5;2;
73204;PMS5003;61413;-27.702;153.216;2024-01-07T15:28:09;5;3;
73204;PMS5003;61413;-27.702;153.216;2024-01-07T15:30:36;4;2;
73204;PMS5003;61413;-27.702;153.216;2024-01-07T15:33:03;3;2;
73204;PMS5003;61413;-27.702;153.216;2024-01-07T15:35:30;2;2;
73204;PMS5003;61413;-27.702;153.216;2024-01-07T15:37:57;6;2;
73204;PMS5003;61413;-27.702;153.216;2024-01-07T15:40:24;5;2;
73204;PMS5003;61413;-27.702;153.216;2024-01-07T15:42:51;6;2;
73204;PMS5003;61413;-27.702;153.216;2024-01-07T15:45:18;4;1;
73204;PMS5003;61413;-27.702;153.216;2024-01-07T15:47:45;2;1;
73204;PMS5003;61413;-27.702;153.216;2024-01-07T15:50:12;4;2;
73204;PMS5003;61413;-27.702;153.216;2024-01-07T15:52:39;4;3;
73204;PMS5003;61413;-27.702;153.216;2024-01-07T15:55:06;1;1;
73204;PMS5003;61413;-27.702;153.216;2024-01-07T15:57:33;6;2;
73204;PMS5003;61413;-27.702;153.216;2024-01-07T16:00:00;4;2;
73204;PMS5003;61413;-27.702;153.216;2024-01-07T16:02:27;2;2;
73204;PMS5003;61413;-27.702;153.216;2024-01-07T16:04:54;4;3;
73204;PMS5003;61413;-27.702;153.216;2024-01-07T16:07:20;3;1;
73204;PMS5003;61413;-27.702;153.216;2024-01-07T16:09:48;1;0;
73204;PMS5003;61413;-27.702;153.216;2024-01-07T16:12:15;1;1;
73204;PMS5003;61413;-27.702;153.216;2024-01-07T16:14:42;5;3;
73204;PMS5003;61413;-27.702;153.216;2024-01-07T16:17:10;3;2;
73204;PMS5003;61413;-27.702;153.216;2024-01-07T16:19:37;5;0;
73204;PMS5003;61413;-27.702;153.216;2024-01-07T16:22:04;1;1;
73204;PMS5003;61413;-27.702;153.216;2024-01-07T16:24:30;2;1;
73204;PMS5003;61413;-27.702;153.216;2024-01-07T16:26:57;2;2;
73204;PMS5003;61413;-27.702;153.216;2024-01-07T16:29:24;3;2;
73204;PMS5003;61413;-27.702;153.216;2024-01-07T16:31:51;5;3;
73204;PMS5003;61413;-27.702;153.216;2024-01-07T16:34:18;2;0;
73204;PMS5003;61413;-27.702;153.216;2024-01-07T16:39:10;2;0;
73204;PMS5003;61413;-27.702;153.216;2024-01-07T16:41:37;2;2;
73204;PMS5003;61413;-27.702;153.216;2024-01-07T16:44:04;12;3;
73204;PMS5003;61413;-27.702;153.216;2024-01-07T16:46:30;1;1;
73204;PMS5003;61413;-27.702;153.216;2024-01-07T16:48:57;3;2;
73204;PMS5003;61413;-27.702;153.216;2024-01-07T16:51:24;2;0;
73204;PMS5003;61413;-27.702;153.216;2024-01-07T16:53:51;2;1;
73204;PMS5003;61413;-27.702;153.216;2024-01-07T16:56:18;2;1;